createdAt,value
2018-01-15T00:01:47.172Z,18.00
2018-01-15T00:04:13.579Z,17.92
2018-01-15T00:06:41.748Z,18.05
2018-01-15T00:09:08.187Z,17.95
2018-01-15T00:11:34.581Z,19.10
2018-01-15T00:14:00.980Z,18.05
2018-01-15T00:16:27.388Z,16.15
2018-01-15T00:18:53.801Z,17.02
2018-01-15T00:21:20.099Z,16.87
2018-01-15T00:23:47.290Z,18.08
2018-01-15T00:26:13.707Z,18.10
2018-01-15T00:28:40.163Z,18.02
2018-01-15T00:31:07.279Z,17.52
2018-01-15T00:33:33.735Z,17.27
2018-01-15T00:36:00.143Z,19.05
2018-01-15T00:38:26.483Z,17.83
2018-01-15T00:40:52.898Z,17.23
2018-01-15T00:43:19.373Z,18.12
2018-01-15T00:45:45.798Z,17.40
2018-01-15T00:48:12.231Z,16.65
2018-01-15T00:50:38.647Z,17.30
2018-01-15T00:53:04.983Z,16.65
2018-01-15T00:55:31.306Z,16.65
2018-01-15T00:57:57.762Z,16.67
2018-01-15T01:00:24.158Z,16.23
2018-01-15T01:02:50.650Z,17.37
2018-01-15T01:05:17.022Z,18.00
2018-01-15T01:07:43.470Z,16.45
2018-01-15T01:10:09.823Z,15.68
2018-01-15T01:12:36.134Z,17.87
2018-01-15T01:15:02.484Z,16.85
2018-01-15T01:17:28.902Z,15.98
2018-01-15T01:19:55.989Z,16.95
2018-01-15T01:22:22.388Z,17.25
2018-01-15T01:24:48.786Z,16.02
2018-01-15T01:27:15.859Z,15.30
2018-01-15T01:29:42.208Z,17.10
2018-01-15T01:32:08.526Z,15.40
2018-01-15T01:34:34.935Z,15.55
2018-01-15T01:37:02.111Z,13.18
2018-01-15T01:39:28.540Z,14.35
2018-01-15T01:41:54.975Z,15.60
2018-01-15T01:44:21.387Z,16.12
2018-01-15T01:46:47.733Z,15.80
2018-01-15T01:49:14.050Z,16.50
2018-01-15T01:51:40.493Z,16.92
2018-01-15T01:54:06.960Z,16.62
2018-01-15T01:56:33.378Z,16.20
2018-01-15T01:58:59.766Z,16.10
2018-01-15T02:01:26.845Z,17.00
2018-01-15T02:03:53.183Z,16.27
2018-01-15T02:06:19.499Z,17.35
2018-01-15T02:08:46.007Z,17.27
2018-01-15T02:11:13.196Z,16.08
2018-01-15T02:13:39.617Z,17.10
2018-01-15T02:16:06.046Z,15.60
2018-01-15T02:18:32.407Z,16.50
2018-01-15T02:20:58.828Z,16.12
2018-01-15T02:23:25.165Z,16.27
2018-01-15T02:25:51.592Z,15.70
2018-01-15T02:28:18.044Z,15.98
2018-01-15T02:30:44.466Z,16.58
2018-01-15T02:33:10.910Z,15.23
2018-01-15T02:35:37.445Z,15.98
2018-01-15T02:38:03.862Z,16.20
2018-01-15T02:40:30.177Z,14.75
2018-01-15T02:42:56.632Z,15.70
2018-01-15T02:45:23.043Z,16.35
2018-01-15T02:47:49.491Z,16.98
2018-01-15T02:50:15.894Z,15.63
2018-01-15T02:52:42.310Z,15.82
2018-01-15T02:55:09.381Z,15.88
2018-01-15T02:57:35.728Z,15.32
2018-01-15T03:00:02.096Z,15.18
2018-01-15T03:02:28.691Z,15.00
2018-01-15T03:04:55.104Z,16.23
2018-01-15T03:07:22.299Z,14.70
2018-01-15T03:09:48.713Z,15.00
2018-01-15T03:12:15.140Z,16.05
2018-01-15T03:14:41.454Z,13.77
2018-01-15T03:17:07.831Z,15.10
2018-01-15T03:19:34.210Z,16.25
2018-01-15T03:22:01.392Z,15.48
2018-01-15T03:24:27.725Z,15.82
2018-01-15T03:26:54.168Z,15.10
2018-01-15T03:29:20.568Z,13.40
2018-01-15T03:31:47.078Z,15.15
2018-01-15T03:34:14.771Z,15.13
2018-01-15T03:36:45.046Z,16.67
2018-01-15T03:39:11.432Z,14.52
2018-01-15T03:41:37.893Z,15.02
2018-01-15T03:44:04.297Z,13.32
2018-01-15T03:46:30.740Z,15.00
2018-01-15T03:48:57.060Z,13.38
2018-01-15T03:51:23.410Z,12.50
2018-01-15T03:53:49.818Z,13.43
2018-01-15T03:56:16.262Z,13.02
2018-01-15T03:58:42.682Z,12.75
2018-01-15T04:01:09.192Z,13.60
2018-01-15T04:03:35.542Z,13.82
2018-01-15T04:06:01.875Z,12.63
2018-01-15T04:08:28.233Z,13.48
2018-01-15T04:10:54.648Z,12.82
2018-01-15T04:13:21.086Z,13.68
2018-01-15T04:15:47.534Z,12.93
2018-01-15T04:18:13.934Z,12.90
2018-01-15T04:20:40.293Z,13.40
2018-01-15T04:23:06.700Z,13.80
2018-01-15T04:25:33.050Z,13.02
2018-01-15T04:27:59.470Z,12.77
2018-01-15T04:30:26.036Z,12.25
2018-01-15T04:32:52.427Z,11.95
2018-01-15T04:35:18.932Z,12.10
2018-01-15T04:37:45.323Z,13.25
2018-01-15T04:40:11.740Z,13.50
2018-01-15T04:42:38.104Z,12.50
2018-01-15T04:45:04.394Z,11.15
2018-01-15T04:47:30.860Z,12.63
2018-01-15T04:49:57.263Z,12.47
2018-01-15T04:52:23.730Z,12.37
2018-01-15T04:54:50.129Z,11.65
2018-01-15T04:57:16.581Z,12.07
2018-01-15T04:59:42.877Z,11.50
2018-01-15T05:02:09.975Z,11.20
2018-01-15T05:04:36.319Z,11.98
2018-01-15T05:07:02.630Z,11.30
2018-01-15T05:09:28.940Z,10.60
2018-01-15T05:11:55.379Z,12.02
2018-01-15T05:14:21.789Z,11.07
2018-01-15T05:16:48.868Z,12.68
2018-01-15T05:19:15.187Z,11.18
2018-01-15T05:21:41.632Z,13.00
2018-01-15T05:24:08.044Z,10.98
2018-01-15T05:26:34.496Z,11.77
2018-01-15T05:29:00.907Z,11.20
2018-01-15T05:31:27.253Z,11.88
2018-01-15T05:33:53.588Z,12.45
2018-01-15T05:36:19.988Z,11.90
2018-01-15T05:38:47.178Z,11.25
2018-01-15T05:41:13.630Z,12.02
2018-01-15T05:43:40.042Z,11.70
2018-01-15T05:46:06.462Z,12.40
2018-01-15T05:48:32.866Z,11.32
2018-01-15T05:50:59.937Z,11.07
2018-01-15T05:53:26.290Z,11.23
2018-01-15T05:55:52.603Z,11.50
2018-01-15T05:58:20.038Z,10.50
2018-01-15T06:00:47.223Z,11.23
2018-01-15T06:03:13.633Z,11.40
2018-01-15T06:05:39.990Z,10.82
2018-01-15T06:08:06.385Z,11.98
2018-01-15T06:10:33.467Z,12.23
2018-01-15T06:12:59.880Z,10.75
2018-01-15T06:15:26.383Z,11.60
2018-01-15T06:17:53.553Z,12.82
2018-01-15T06:20:19.942Z,10.52
2018-01-15T06:22:46.364Z,11.80
2018-01-15T06:25:12.742Z,11.10
2018-01-15T06:27:39.840Z,11.15
2018-01-15T06:30:06.137Z,11.43
2018-01-15T06:32:32.612Z,11.77
2018-01-15T06:34:59.728Z,12.45
2018-01-15T06:37:26.162Z,10.98
2018-01-15T06:39:52.600Z,12.00
2018-01-15T06:42:19.980Z,12.07
2018-01-15T06:44:46.417Z,11.68
2018-01-15T06:47:12.831Z,10.80
2018-01-15T06:49:39.248Z,10.88
2018-01-15T06:52:05.714Z,11.15
2018-01-15T06:54:32.191Z,11.23
2018-01-15T06:56:59.615Z,12.30
2018-01-15T06:59:25.987Z,10.50
2018-01-15T07:01:52.346Z,10.70
2018-01-15T07:04:18.670Z,11.27
2018-01-15T07:06:45.015Z,10.48
2018-01-15T07:09:11.314Z,10.82
2018-01-15T07:11:37.677Z,10.77
2018-01-15T07:14:04.008Z,10.40
2018-01-15T07:16:30.328Z,10.43
2018-01-15T07:18:56.642Z,10.77
2018-01-15T07:21:22.999Z,11.27
2018-01-15T07:23:49.290Z,10.10
2018-01-15T07:26:16.393Z,10.38
2018-01-15T07:28:42.716Z,10.75
2018-01-15T07:31:09.045Z,10.00
2018-01-15T07:33:35.347Z,10.20
2018-01-15T07:36:01.698Z,11.13
2018-01-15T07:38:28.010Z,10.20
2018-01-15T07:40:54.364Z,10.40
2018-01-15T07:43:20.675Z,9.70
2018-01-15T07:45:47.025Z,10.27
2018-01-15T07:48:13.338Z,9.82
2018-01-15T07:50:39.710Z,10.02
2018-01-15T07:53:05.987Z,10.60
2018-01-15T07:55:32.351Z,11.43
2018-01-15T07:57:58.760Z,10.10
2018-01-15T08:00:25.103Z,10.23
2018-01-15T08:02:51.523Z,9.90
2018-01-15T08:05:17.879Z,11.52
2018-01-15T08:07:44.182Z,10.90
2018-01-15T08:10:10.539Z,11.30
2018-01-15T08:12:36.827Z,9.90
2018-01-15T08:15:03.192Z,9.85
2018-01-15T08:17:29.508Z,12.37
2018-01-15T08:19:55.850Z,11.80
2018-01-15T08:22:22.155Z,12.10
2018-01-15T08:24:48.707Z,11.37
2018-01-15T08:27:15.038Z,11.00
2018-01-15T08:29:41.425Z,10.37
2018-01-15T08:32:08.504Z,8.93
2018-01-15T08:34:34.863Z,10.23
2018-01-15T08:37:01.158Z,10.90
2018-01-15T08:39:28.242Z,12.30
2018-01-15T08:41:54.559Z,10.83
2018-01-15T08:44:20.910Z,11.60
2018-01-15T08:46:47.207Z,12.18
2018-01-15T08:49:13.576Z,10.13
2018-01-15T08:51:39.874Z,11.77
2018-01-15T08:54:06.214Z,11.60
2018-01-15T08:56:32.528Z,11.07
2018-01-15T08:58:58.885Z,10.83
2018-01-15T09:01:25.186Z,10.73
2018-01-15T09:03:51.616Z,10.40
2018-01-15T09:06:18.680Z,9.93
2018-01-15T09:08:45.037Z,11.77
2018-01-15T09:11:11.343Z,11.50
2018-01-15T09:13:37.678Z,11.00
2018-01-15T09:16:03.997Z,12.60
2018-01-15T09:18:30.336Z,11.03
2018-01-15T09:20:56.660Z,10.40
2018-01-15T09:23:23.024Z,11.70
2018-01-15T09:25:49.298Z,11.53
2018-01-15T09:28:16.367Z,11.70
2018-01-15T09:30:42.719Z,10.60
2018-01-15T09:33:09.029Z,10.50
2018-01-15T09:35:35.367Z,11.83
2018-01-15T09:38:01.680Z,12.10
2018-01-15T09:40:28.768Z,11.50
2018-01-15T09:42:55.131Z,12.70
2018-01-15T09:45:21.498Z,11.00
2018-01-15T09:47:47.903Z,11.37
2018-01-15T09:50:15.000Z,11.63
2018-01-15T09:52:42.347Z,11.63
2018-01-15T09:55:08.782Z,12.33
2018-01-15T09:57:35.132Z,11.47
2018-01-15T10:00:01.422Z,12.33
2018-01-15T10:02:27.802Z,10.70
2018-01-15T10:04:54.080Z,10.90
2018-01-15T10:07:20.437Z,11.80
2018-01-15T10:09:46.805Z,9.27
2018-01-15T10:12:13.219Z,11.33
2018-01-15T10:14:39.500Z,11.83
2018-01-15T10:17:06.569Z,11.77
2018-01-15T10:19:32.890Z,12.00
2018-01-15T10:21:59.256Z,12.47
2018-01-15T10:24:25.564Z,10.97
2018-01-15T10:26:51.905Z,10.87
2018-01-15T10:29:18.184Z,10.77
2018-01-15T10:31:45.202Z,11.00
2018-01-15T10:34:11.571Z,10.67
2018-01-15T10:36:38.600Z,11.20
2018-01-15T10:39:04.870Z,11.63
2018-01-15T10:41:31.155Z,12.80
2018-01-15T10:43:57.430Z,13.03
2018-01-15T10:46:23.707Z,12.37
2018-01-15T10:48:49.982Z,12.47
2018-01-15T10:51:16.312Z,12.97
2018-01-15T10:53:42.649Z,11.83
2018-01-15T10:56:08.920Z,14.33
2018-01-15T10:58:36.057Z,11.90
2018-01-15T11:01:08.399Z,12.73
2018-01-15T11:03:34.752Z,12.73
2018-01-15T11:06:01.044Z,11.77
2018-01-15T11:08:28.092Z,12.50
2018-01-15T11:10:55.131Z,13.53
2018-01-15T11:13:22.153Z,13.03
2018-01-15T11:15:48.547Z,14.50
2018-01-15T11:18:14.865Z,14.10
2018-01-15T11:20:41.222Z,12.60
2018-01-15T11:23:07.637Z,14.30
2018-01-15T11:25:34.062Z,14.47
2018-01-15T11:28:00.932Z,13.07
2018-01-15T11:30:29.291Z,13.43
2018-01-15T11:32:55.615Z,10.33
2018-01-15T11:35:21.952Z,11.00
2018-01-15T11:37:48.258Z,12.23
2018-01-15T11:40:16.642Z,12.50
2018-01-15T11:42:42.916Z,13.67
2018-01-15T11:45:09.944Z,11.80
2018-01-15T11:47:36.190Z,12.53
2018-01-15T11:50:02.823Z,11.70
2018-01-15T11:52:29.091Z,12.77
2018-01-15T11:54:55.387Z,12.47
2018-01-15T11:57:21.748Z,12.40
2018-01-15T11:59:48.031Z,12.20
2018-01-15T12:02:14.304Z,12.63
2018-01-15T12:04:40.608Z,12.70
2018-01-15T12:07:06.884Z,12.00
2018-01-15T12:09:33.960Z,11.87
2018-01-15T12:12:00.226Z,11.47
2018-01-15T12:14:26.526Z,11.27
2018-01-15T12:16:52.772Z,12.83
2018-01-15T12:19:19.078Z,13.40
2018-01-15T12:21:45.403Z,13.87
2018-01-15T12:24:11.666Z,13.60
2018-01-15T12:26:37.963Z,14.00
2018-01-15T12:29:04.240Z,13.50
2018-01-15T12:31:30.521Z,12.20
2018-01-15T12:33:56.800Z,11.80
2018-01-15T12:36:23.125Z,8.90
2018-01-15T12:38:50.232Z,11.10
2018-01-15T12:41:16.540Z,12.47
2018-01-15T12:43:43.553Z,11.33
2018-01-15T12:46:09.856Z,13.10
2018-01-15T12:48:36.120Z,12.47
2018-01-15T12:51:02.410Z,11.83
2018-01-15T12:53:28.733Z,12.70
2018-01-15T12:55:55.066Z,13.33
2018-01-15T12:58:21.382Z,13.13
2018-01-15T13:00:47.684Z,12.13
2018-01-15T13:03:14.746Z,11.97
2018-01-15T13:05:48.570Z,10.57
2018-01-15T13:08:27.060Z,12.77
2018-01-15T13:10:54.087Z,11.80
2018-01-15T13:13:20.346Z,10.10
2018-01-15T13:15:46.679Z,12.70
2018-01-15T13:18:12.962Z,12.50
2018-01-15T13:20:39.244Z,13.47
2018-01-15T13:23:05.563Z,11.93
2018-01-15T13:25:32.596Z,12.47
2018-01-15T13:28:04.345Z,12.07
2018-01-15T13:30:30.638Z,11.70
2018-01-15T13:32:56.903Z,12.80
2018-01-15T13:35:23.960Z,13.10
2018-01-15T13:37:50.976Z,13.57
2018-01-15T13:40:18.246Z,11.27
2018-01-15T13:42:44.513Z,12.27
2018-01-15T13:45:10.824Z,12.73
2018-01-15T13:47:37.839Z,12.20
2018-01-15T13:50:04.137Z,11.20
2018-01-15T13:52:30.424Z,12.03
2018-01-15T13:54:56.732Z,11.53
2018-01-15T13:57:22.999Z,12.00
2018-01-15T13:59:50.027Z,12.80
2018-01-15T14:02:16.287Z,11.90
2018-01-15T14:07:34.616Z,11.87
2018-01-15T14:10:00.916Z,11.87
2018-01-15T14:12:27.195Z,13.43
2018-01-15T14:14:54.221Z,12.73
2018-01-15T14:17:20.512Z,11.80
2018-01-15T14:19:46.831Z,12.70
2018-01-15T14:22:13.161Z,11.47
2018-01-15T14:24:39.420Z,11.60
2018-01-15T14:27:05.732Z,13.23
2018-01-15T14:29:31.992Z,13.53
2018-01-15T14:31:58.274Z,13.70
2018-01-15T14:34:24.542Z,14.50
2018-01-15T14:36:50.831Z,14.77
2018-01-15T14:39:17.086Z,12.33
2018-01-15T14:41:43.366Z,12.80
2018-01-15T14:44:10.372Z,13.00
2018-01-15T14:46:36.681Z,14.60
2018-01-15T14:49:02.978Z,13.30
2018-01-15T14:51:29.294Z,12.90
2018-01-15T14:53:56.314Z,10.90
2018-01-15T14:56:22.591Z,13.33
2018-01-15T14:58:48.917Z,12.20
2018-01-15T15:01:15.197Z,13.00
2018-01-15T15:03:41.536Z,11.80
2018-01-15T15:06:07.775Z,12.17
2018-01-15T15:08:34.047Z,11.87
2018-01-15T15:11:00.322Z,12.90
2018-01-15T15:15:52.808Z,11.70
2018-01-15T15:18:19.834Z,13.37
2018-01-15T15:20:46.098Z,13.90
2018-01-15T15:23:12.367Z,13.33
2018-01-15T15:25:38.636Z,12.40
2018-01-15T15:28:05.698Z,14.43
2018-01-15T15:30:32.718Z,15.50
2018-01-15T15:32:59.033Z,13.20
2018-01-15T15:35:25.286Z,13.80
2018-01-15T15:37:51.596Z,11.70
2018-01-15T15:40:17.863Z,12.37
2018-01-15T15:42:44.937Z,13.60
2018-01-15T15:45:11.212Z,12.97
2018-01-15T15:47:37.609Z,13.43
2018-01-15T15:50:03.879Z,13.27
2018-01-15T15:52:30.158Z,12.60
2018-01-15T15:54:56.410Z,12.40
2018-01-15T15:57:23.779Z,12.93
2018-01-15T15:59:50.063Z,12.07
2018-01-15T16:02:16.368Z,14.63
2018-01-15T16:04:43.374Z,12.80
2018-01-15T16:07:09.684Z,11.90
2018-01-15T16:09:35.952Z,13.27
2018-01-15T16:12:02.244Z,12.50
2018-01-15T16:14:28.563Z,12.27
2018-01-15T16:16:54.836Z,10.00
2018-01-15T16:19:21.120Z,11.60
2018-01-15T16:21:59.813Z,12.40
2018-01-15T16:24:26.868Z,11.93
2018-01-15T16:26:53.896Z,10.60
2018-01-15T16:29:20.182Z,13.03
2018-01-15T16:31:46.515Z,11.90
2018-01-15T16:34:12.818Z,11.67
2018-01-15T16:36:39.118Z,11.67
2018-01-15T16:39:06.172Z,11.57
2018-01-15T16:41:48.130Z,11.40
2018-01-15T16:44:14.395Z,11.63
2018-01-15T16:46:41.436Z,10.77
2018-01-15T16:49:08.457Z,10.63
2018-01-15T16:51:35.489Z,12.27
2018-01-15T16:54:01.862Z,11.73
2018-01-15T16:56:28.618Z,11.20
2018-01-15T16:58:55.682Z,11.43
2018-01-15T17:01:21.968Z,12.87
2018-01-15T17:03:48.253Z,11.30
2018-01-15T17:06:14.545Z,12.17
2018-01-15T17:08:41.654Z,10.67
2018-01-15T17:11:07.972Z,12.93
2018-01-15T17:13:34.267Z,12.23
2018-01-15T17:16:01.275Z,11.90
2018-01-15T17:18:27.561Z,12.07
2018-01-15T17:20:53.884Z,12.03
2018-01-15T17:23:20.932Z,10.90
2018-01-15T17:25:47.263Z,12.53
2018-01-15T17:28:13.618Z,12.83
2018-01-15T17:30:39.899Z,9.80
2018-01-15T17:33:06.952Z,11.30
2018-01-15T17:35:33.976Z,12.10
2018-01-15T17:38:00.245Z,10.57
2018-01-15T17:40:26.506Z,11.07
2018-01-15T17:42:53.544Z,10.73
2018-01-15T17:45:19.818Z,10.63
2018-01-15T17:47:46.112Z,11.77
2018-01-15T17:50:12.449Z,11.10
2018-01-15T17:52:38.739Z,10.40
2018-01-15T17:55:04.997Z,8.40
2018-01-15T17:57:31.323Z,10.10
2018-01-15T17:59:57.640Z,10.73
2018-01-15T18:02:23.990Z,7.80
2018-01-15T18:04:50.270Z,11.17
2018-01-15T18:07:17.294Z,9.77
2018-01-15T18:09:44.424Z,9.77
2018-01-15T18:12:10.709Z,10.57
2018-01-15T18:14:37.722Z,8.30
2018-01-15T18:17:04.064Z,11.03
2018-01-15T18:19:31.082Z,9.73
2018-01-15T18:21:57.409Z,10.13
2018-01-15T18:24:23.736Z,10.67
2018-01-15T18:26:50.034Z,10.60
2018-01-15T18:29:16.312Z,8.93
2018-01-15T18:31:42.620Z,10.57
2018-01-15T18:34:08.905Z,12.40
2018-01-15T18:36:35.942Z,10.63
2018-01-15T18:39:03.011Z,9.87
2018-01-15T18:41:29.287Z,10.13
2018-01-15T18:43:55.572Z,11.20
2018-01-15T18:46:21.850Z,10.37
2018-01-15T18:48:48.133Z,10.07
2018-01-15T18:51:14.427Z,10.10
2018-01-15T18:53:40.704Z,11.00
2018-01-15T18:56:07.019Z,11.23
2018-01-15T18:58:33.322Z,10.03
2018-01-15T19:00:59.745Z,11.43
2018-01-15T19:03:26.010Z,9.37
2018-01-15T19:05:52.307Z,9.90
2018-01-15T19:08:18.577Z,10.23
2018-01-15T19:10:44.856Z,9.77
2018-01-15T19:13:11.164Z,10.20
2018-01-15T19:15:37.436Z,11.57
2018-01-15T19:18:04.054Z,9.03
2018-01-15T19:20:30.318Z,10.50
2018-01-15T19:22:57.348Z,10.20
2018-01-15T19:25:24.418Z,9.80
2018-01-15T19:27:50.754Z,9.20
2018-01-15T19:30:17.083Z,9.50
2018-01-15T19:32:43.382Z,9.73
2018-01-15T19:35:28.428Z,9.30
2018-01-15T19:37:54.719Z,9.03
2018-01-15T19:40:21.040Z,9.77
2018-01-15T19:42:47.623Z,9.20
2018-01-15T19:45:30.921Z,9.33
2018-01-15T19:48:03.337Z,10.43
2018-01-15T19:50:35.667Z,9.30
2018-01-15T19:53:08.269Z,10.80
2018-01-15T19:55:40.624Z,9.47
2018-01-15T19:58:12.902Z,10.70
2018-01-15T20:00:45.194Z,7.97
2018-01-15T20:03:17.615Z,8.37
2018-01-15T20:06:01.684Z,10.13
2018-01-15T20:08:34.807Z,10.70
2018-01-15T20:11:02.251Z,9.93
2018-01-15T20:13:29.319Z,10.83
2018-01-15T20:15:55.695Z,9.40
2018-01-15T20:18:21.972Z,10.60
2018-01-15T20:20:48.249Z,11.77
2018-01-15T20:23:14.544Z,11.80
2018-01-15T20:25:40.820Z,11.17
2018-01-15T20:28:07.091Z,11.70
2018-01-15T20:30:33.382Z,13.50
2018-01-15T20:33:00.017Z,11.30
2018-01-15T20:35:26.268Z,11.33
2018-01-15T20:37:52.555Z,10.60
2018-01-15T20:40:18.842Z,11.73
2018-01-15T20:42:45.162Z,11.33
2018-01-15T20:45:11.442Z,11.30
2018-01-15T20:47:38.485Z,10.70
2018-01-15T20:50:05.524Z,9.10
2018-01-15T20:52:32.559Z,9.90
2018-01-15T20:54:58.814Z,11.00
2018-01-15T20:57:25.940Z,10.20
2018-01-15T20:59:52.229Z,10.00
2018-01-15T21:02:18.518Z,12.10
2018-01-15T21:04:45.535Z,9.67
2018-01-15T21:07:11.814Z,11.27
2018-01-15T21:09:38.083Z,10.47
2018-01-15T21:12:04.367Z,10.10
2018-01-15T21:14:30.708Z,10.00
2018-01-15T21:16:56.996Z,11.67
2018-01-15T21:19:23.294Z,10.33
2018-01-15T21:21:49.615Z,10.33
2018-01-15T21:24:15.886Z,9.73
2018-01-15T21:26:42.158Z,11.47
2018-01-15T21:29:08.442Z,11.93
2018-01-15T21:31:34.719Z,10.90
2018-01-15T21:34:01.002Z,10.67
2018-01-15T21:36:28.036Z,11.20
2018-01-15T21:38:54.326Z,9.80
2018-01-15T21:41:20.629Z,10.17
2018-01-15T21:43:47.731Z,8.33
2018-01-15T21:46:14.024Z,9.70
2018-01-15T21:48:40.321Z,9.53
2018-01-15T21:51:06.582Z,8.87
2018-01-15T21:53:32.884Z,10.53
2018-01-15T21:55:59.891Z,9.57
2018-01-15T21:58:26.230Z,9.53
2018-01-15T22:00:52.520Z,9.03
2018-01-15T22:03:18.790Z,9.20
2018-01-15T22:05:45.807Z,7.33
2018-01-15T22:08:12.151Z,9.50
2018-01-15T22:10:38.426Z,8.17
2018-01-15T22:13:05.468Z,8.63
2018-01-15T22:15:31.738Z,7.77
2018-01-15T22:17:58.024Z,8.60
2018-01-15T22:20:24.271Z,7.93
2018-01-15T22:22:51.442Z,6.00
2018-01-15T22:25:17.711Z,9.20
2018-01-15T22:27:43.998Z,8.80
2018-01-15T22:30:10.282Z,7.60
2018-01-15T22:32:36.574Z,7.67
2018-01-15T22:35:02.905Z,7.20
2018-01-15T22:37:29.284Z,6.80
2018-01-15T22:39:55.578Z,6.87
2018-01-15T22:42:21.939Z,6.97
2018-01-15T22:44:48.300Z,6.30
2018-01-15T22:47:14.646Z,7.40
2018-01-15T22:49:40.931Z,5.70
2018-01-15T22:52:07.238Z,6.00
2018-01-15T22:54:33.554Z,6.63
2018-01-15T22:56:59.916Z,6.13
2018-01-15T22:59:26.230Z,5.40
2018-01-15T23:01:52.624Z,4.73
2018-01-15T23:04:18.938Z,5.83
2018-01-15T23:06:46.153Z,5.67
2018-01-15T23:09:12.540Z,4.90
2018-01-15T23:11:39.061Z,5.37
2018-01-15T23:14:06.236Z,4.60
2018-01-15T23:16:32.704Z,4.10
2018-01-15T23:18:59.114Z,3.30
2018-01-15T23:21:25.473Z,3.20
2018-01-15T23:23:52.632Z,3.43
2018-01-15T23:26:18.915Z,3.93
2018-01-15T23:28:45.252Z,3.53
2018-01-15T23:31:11.746Z,3.00
2018-01-15T23:33:38.780Z,3.17
2018-01-15T23:36:05.388Z,3.10
2018-01-15T23:38:31.771Z,3.50
2018-01-15T23:40:58.864Z,3.73
2018-01-15T23:43:25.151Z,3.53
2018-01-15T23:45:52.348Z,3.60
2018-01-15T23:48:18.997Z,3.83
2018-01-15T23:50:45.411Z,3.67
2018-01-15T23:53:11.862Z,4.10
2018-01-15T23:55:38.244Z,4.00
2018-01-15T23:58:04.745Z,3.43
